sensor_id;sensor_type;location;lat;lon;timestamp;P1;durP1;ratioP1;P2;durP2;ratioP2
60819;SDS011;46641;48.904;9.126;2022-10-31T00:04:06;6.33;;;5.73;;
60819;SDS011;46641;48.904;9.126;2022-10-31T00:08:58;7.70;;;5.70;;
60819;SDS011;46641;48.904;9.126;2022-10-31T00:13:50;6.23;;;5.63;;
60819;SDS011;46641;48.904;9.126;2022-10-31T00:18:40;5.43;;;4.90;;
60819;SDS011;46641;48.904;9.126;2022-10-31T00:23:31;6.85;;;4.95;;
60819;SDS011;46641;48.904;9.126;2022-10-31T00:28:21;10.93;;;6.27;;
60819;SDS011;46641;48.904;9.126;2022-10-31T00:33:11;6.07;;;5.47;;
60819;SDS011;46641;48.904;9.126;2022-10-31T00:38:01;8.53;;;5.87;;
60819;SDS011;46641;48.904;9.126;2022-10-31T00:42:52;7.03;;;5.20;;
60819;SDS011;46641;48.904;9.126;2022-10-31T00:47:42;5.20;;;4.80;;
60819;SDS011;46641;48.904;9.126;2022-10-31T00:52:32;6.20;;;4.70;;
60819;SDS011;46641;48.904;9.126;2022-10-31T00:57:23;6.50;;;5.03;;
60819;SDS011;46641;48.904;9.126;2022-10-31T01:02:13;5.53;;;5.00;;
60819;SDS011;46641;48.904;9.126;2022-10-31T01:07:04;7.20;;;5.32;;
60819;SDS011;46641;48.904;9.126;2022-10-31T01:11:54;5.40;;;4.85;;
60819;SDS011;46641;48.904;9.126;2022-10-31T01:16:44;6.17;;;5.20;;
60819;SDS011;46641;48.904;9.126;2022-10-31T01:21:35;5.93;;;5.17;;
60819;SDS011;46641;48.904;9.126;2022-10-31T01:26:27;5.23;;;4.73;;
60819;SDS011;46641;48.904;9.126;2022-10-31T01:31:21;5.93;;;4.90;;
60819;SDS011;46641;48.904;9.126;2022-10-31T01:36:33;6.67;;;5.03;;
60819;SDS011;46641;48.904;9.126;2022-10-31T01:41:27;5.33;;;4.83;;
60819;SDS011;46641;48.904;9.126;2022-10-31T01:46:23;7.27;;;4.60;;
60819;SDS011;46641;48.904;9.126;2022-10-31T01:51:17;4.97;;;4.43;;
60819;SDS011;46641;48.904;9.126;2022-10-31T01:56:10;6.47;;;4.90;;
60819;SDS011;46641;48.904;9.126;2022-10-31T02:01:02;5.17;;;4.57;;
60819;SDS011;46641;48.904;9.126;2022-10-31T02:05:54;6.87;;;5.07;;
60819;SDS011;46641;48.904;9.126;2022-10-31T02:10:45;6.10;;;5.03;;
60819;SDS011;46641;48.904;9.126;2022-10-31T02:15:36;8.07;;;5.37;;
60819;SDS011;46641;48.904;9.126;2022-10-31T02:20:42;6.60;;;4.43;;
60819;SDS011;46641;48.904;9.126;2022-10-31T02:41:44;5.50;;;4.97;;
60819;SDS011;46641;48.904;9.126;2022-10-31T02:46:43;6.17;;;5.07;;
60819;SDS011;46641;48.904;9.126;2022-10-31T02:51:38;5.57;;;4.97;;
60819;SDS011;46641;48.904;9.126;2022-10-31T02:56:29;8.23;;;6.13;;
60819;SDS011;46641;48.904;9.126;2022-10-31T03:01:30;7.37;;;5.67;;
60819;SDS011;46641;48.904;9.126;2022-10-31T03:06:41;9.93;;;5.50;;
60819;SDS011;46641;48.904;9.126;2022-10-31T03:11:58;7.23;;;5.20;;
60819;SDS011;46641;48.904;9.126;2022-10-31T03:16:59;10.77;;;5.97;;
60819;SDS011;46641;48.904;9.126;2022-10-31T03:22:07;7.57;;;5.23;;
60819;SDS011;46641;48.904;9.126;2022-10-31T03:27:13;6.80;;;5.50;;
60819;SDS011;46641;48.904;9.126;2022-10-31T03:32:08;9.00;;;6.17;;
60819;SDS011;46641;48.904;9.126;2022-10-31T03:37:10;9.43;;;5.63;;
60819;SDS011;46641;48.904;9.126;2022-10-31T03:42:05;5.37;;;4.87;;
60819;SDS011;46641;48.904;9.126;2022-10-31T03:47:02;8.47;;;5.53;;
60819;SDS011;46641;48.904;9.126;2022-10-31T04:02:20;7.63;;;5.87;;
60819;SDS011;46641;48.904;9.126;2022-10-31T04:07:15;6.30;;;5.07;;
60819;SDS011;46641;48.904;9.126;2022-10-31T04:12:08;6.70;;;5.17;;
60819;SDS011;46641;48.904;9.126;2022-10-31T04:17:05;6.80;;;5.83;;
60819;SDS011;46641;48.904;9.126;2022-10-31T04:21:59;5.77;;;5.20;;
60819;SDS011;46641;48.904;9.126;2022-10-31T04:26:50;6.13;;;5.50;;
60819;SDS011;46641;48.904;9.126;2022-10-31T04:31:40;6.32;;;5.40;;
60819;SDS011;46641;48.904;9.126;2022-10-31T04:36:30;6.57;;;5.50;;
60819;SDS011;46641;48.904;9.126;2022-10-31T04:41:20;5.97;;;5.37;;
60819;SDS011;46641;48.904;9.126;2022-10-31T04:46:11;6.80;;;4.83;;
60819;SDS011;46641;48.904;9.126;2022-10-31T04:51:01;7.10;;;5.18;;
60819;SDS011;46641;48.904;9.126;2022-10-31T04:55:52;6.80;;;5.27;;
60819;SDS011;46641;48.904;9.126;2022-10-31T05:00:42;6.93;;;5.40;;
60819;SDS011;46641;48.904;9.126;2022-10-31T05:05:33;7.38;;;5.07;;
60819;SDS011;46641;48.904;9.126;2022-10-31T05:10:25;7.03;;;5.13;;
60819;SDS011;46641;48.904;9.126;2022-10-31T05:15:17;7.63;;;5.27;;
60819;SDS011;46641;48.904;9.126;2022-10-31T05:20:09;7.53;;;4.70;;
60819;SDS011;46641;48.904;9.126;2022-10-31T05:25:01;7.67;;;4.57;;
60819;SDS011;46641;48.904;9.126;2022-10-31T05:29:51;6.88;;;5.22;;
60819;SDS011;46641;48.904;9.126;2022-10-31T05:34:41;7.60;;;5.10;;
60819;SDS011;46641;48.904;9.126;2022-10-31T05:39:33;6.43;;;5.30;;
60819;SDS011;46641;48.904;9.126;2022-10-31T05:44:23;6.47;;;4.57;;
60819;SDS011;46641;48.904;9.126;2022-10-31T05:49:13;7.53;;;4.77;;
60819;SDS011;46641;48.904;9.126;2022-10-31T05:54:03;5.70;;;5.10;;
60819;SDS011;46641;48.904;9.126;2022-10-31T05:58:54;6.07;;;5.17;;
60819;SDS011;46641;48.904;9.126;2022-10-31T06:03:44;6.37;;;5.63;;
60819;SDS011;46641;48.904;9.126;2022-10-31T06:08:35;5.40;;;4.75;;
60819;SDS011;46641;48.904;9.126;2022-10-31T06:13:25;4.67;;;4.20;;
60819;SDS011;46641;48.904;9.126;2022-10-31T06:18:15;6.07;;;5.23;;
60819;SDS011;46641;48.904;9.126;2022-10-31T06:23:06;7.25;;;5.63;;
60819;SDS011;46641;48.904;9.126;2022-10-31T06:27:56;5.72;;;4.57;;
60819;SDS011;46641;48.904;9.126;2022-10-31T06:32:46;6.93;;;4.97;;
60819;SDS011;46641;48.904;9.126;2022-10-31T06:37:37;8.20;;;5.70;;
60819;SDS011;46641;48.904;9.126;2022-10-31T06:42:27;7.83;;;4.90;;
60819;SDS011;46641;48.904;9.126;2022-10-31T06:47:18;9.07;;;4.88;;
60819;SDS011;46641;48.904;9.126;2022-10-31T06:52:08;5.90;;;4.97;;
60819;SDS011;46641;48.904;9.126;2022-10-31T06:56:58;8.60;;;6.00;;
60819;SDS011;46641;48.904;9.126;2022-10-31T07:01:49;6.57;;;5.53;;
60819;SDS011;46641;48.904;9.126;2022-10-31T07:06:40;7.23;;;5.27;;
60819;SDS011;46641;48.904;9.126;2022-10-31T07:11:30;7.80;;;5.57;;
60819;SDS011;46641;48.904;9.126;2022-10-31T07:16:20;6.77;;;4.97;;
60819;SDS011;46641;48.904;9.126;2022-10-31T07:21:11;8.10;;;5.67;;
60819;SDS011;46641;48.904;9.126;2022-10-31T07:26:01;6.03;;;4.60;;
60819;SDS011;46641;48.904;9.126;2022-10-31T07:30:55;7.17;;;5.03;;
60819;SDS011;46641;48.904;9.126;2022-10-31T07:35:46;6.67;;;5.73;;
60819;SDS011;46641;48.904;9.126;2022-10-31T07:40:37;5.97;;;5.35;;
60819;SDS011;46641;48.904;9.126;2022-10-31T07:45:27;7.37;;;5.47;;
60819;SDS011;46641;48.904;9.126;2022-10-31T07:50:18;7.67;;;5.80;;
60819;SDS011;46641;48.904;9.126;2022-10-31T07:55:10;8.03;;;5.90;;
60819;SDS011;46641;48.904;9.126;2022-10-31T08:00:01;10.83;;;5.43;;
60819;SDS011;46641;48.904;9.126;2022-10-31T08:04:53;9.90;;;5.23;;
60819;SDS011;46641;48.904;9.126;2022-10-31T08:09:44;5.67;;;5.10;;
60819;SDS011;46641;48.904;9.126;2022-10-31T08:14:35;7.80;;;5.27;;
60819;SDS011;46641;48.904;9.126;2022-10-31T08:19:25;6.90;;;5.53;;
60819;SDS011;46641;48.904;9.126;2022-10-31T08:24:15;6.90;;;5.27;;
60819;SDS011;46641;48.904;9.126;2022-10-31T08:29:06;9.83;;;5.53;;
60819;SDS011;46641;48.904;9.126;2022-10-31T08:33:56;9.32;;;5.70;;
60819;SDS011;46641;48.904;9.126;2022-10-31T08:38:47;8.80;;;7.20;;
60819;SDS011;46641;48.904;9.126;2022-10-31T08:43:37;10.03;;;6.57;;
60819;SDS011;46641;48.904;9.126;2022-10-31T08:48:27;10.07;;;6.47;;
60819;SDS011;46641;48.904;9.126;2022-10-31T08:53:19;12.87;;;7.03;;
60819;SDS011;46641;48.904;9.126;2022-10-31T08:58:11;9.90;;;6.93;;
60819;SDS011;46641;48.904;9.126;2022-10-31T09:03:03;8.27;;;7.07;;
60819;SDS011;46641;48.904;9.126;2022-10-31T09:07:56;8.90;;;6.77;;
60819;SDS011;46641;48.904;9.126;2022-10-31T09:12:47;7.87;;;6.40;;
60819;SDS011;46641;48.904;9.126;2022-10-31T09:17:47;8.63;;;6.57;;
60819;SDS011;46641;48.904;9.126;2022-10-31T09:22:38;10.33;;;7.10;;
60819;SDS011;46641;48.904;9.126;2022-10-31T09:27:28;11.40;;;7.60;;
60819;SDS011;46641;48.904;9.126;2022-10-31T09:32:18;10.43;;;6.70;;
60819;SDS011;46641;48.904;9.126;2022-10-31T09:37:08;8.98;;;7.20;;
60819;SDS011;46641;48.904;9.126;2022-10-31T09:47:17;9.20;;;6.47;;
60819;SDS011;46641;48.904;9.126;2022-10-31T09:52:35;6.57;;;5.90;;
60819;SDS011;46641;48.904;9.126;2022-10-31T09:57:31;9.13;;;6.53;;
60819;SDS011;46641;48.904;9.126;2022-10-31T10:12:37;6.40;;;5.63;;
60819;SDS011;46641;48.904;9.126;2022-10-31T10:17:53;6.87;;;5.80;;
60819;SDS011;46641;48.904;9.126;2022-10-31T10:28:23;8.10;;;5.77;;
60819;SDS011;46641;48.904;9.126;2022-10-31T10:33:31;8.83;;;6.60;;
60819;SDS011;46641;48.904;9.126;2022-10-31T10:43:29;12.60;;;7.17;;
60819;SDS011;46641;48.904;9.126;2022-10-31T10:58:51;9.47;;;7.03;;
60819;SDS011;46641;48.904;9.126;2022-10-31T11:03:44;10.13;;;7.63;;
60819;SDS011;46641;48.904;9.126;2022-10-31T11:08:35;9.63;;;7.87;;
60819;SDS011;46641;48.904;9.126;2022-10-31T11:13:26;20.87;;;15.53;;
60819;SDS011;46641;48.904;9.126;2022-10-31T11:18:20;9.53;;;6.83;;
60819;SDS011;46641;48.904;9.126;2022-10-31T11:23:18;10.40;;;7.33;;
60819;SDS011;46641;48.904;9.126;2022-10-31T11:28:10;10.70;;;7.23;;
60819;SDS011;46641;48.904;9.126;2022-10-31T11:33:00;9.80;;;7.20;;
60819;SDS011;46641;48.904;9.126;2022-10-31T11:37:51;11.40;;;7.40;;
60819;SDS011;46641;48.904;9.126;2022-10-31T11:42:43;15.63;;;7.60;;
60819;SDS011;46641;48.904;9.126;2022-10-31T11:47:34;10.43;;;7.87;;
60819;SDS011;46641;48.904;9.126;2022-10-31T11:52:27;12.37;;;8.67;;
60819;SDS011;46641;48.904;9.126;2022-10-31T11:57:24;10.50;;;8.13;;
60819;SDS011;46641;48.904;9.126;2022-10-31T12:02:18;11.93;;;7.80;;
60819;SDS011;46641;48.904;9.126;2022-10-31T12:07:09;8.03;;;7.23;;
60819;SDS011;46641;48.904;9.126;2022-10-31T12:12:12;11.57;;;8.00;;
60819;SDS011;46641;48.904;9.126;2022-10-31T12:17:14;11.87;;;7.67;;
60819;SDS011;46641;48.904;9.126;2022-10-31T12:22:19;9.47;;;7.67;;
60819;SDS011;46641;48.904;9.126;2022-10-31T12:58:33;8.47;;;6.67;;
60819;SDS011;46641;48.904;9.126;2022-10-31T13:03:32;10.67;;;7.10;;
60819;SDS011;46641;48.904;9.126;2022-10-31T13:08:30;12.60;;;7.70;;
60819;SDS011;46641;48.904;9.126;2022-10-31T13:13:31;12.27;;;7.00;;
60819;SDS011;46641;48.904;9.126;2022-10-31T13:18:33;17.30;;;11.97;;
60819;SDS011;46641;48.904;9.126;2022-10-31T13:23:38;22.33;;;16.50;;
60819;SDS011;46641;48.904;9.126;2022-10-31T13:28:37;13.10;;;10.00;;
60819;SDS011;46641;48.904;9.126;2022-10-31T13:33:44;12.67;;;8.57;;
60819;SDS011;46641;48.904;9.126;2022-10-31T13:48:54;13.20;;;8.57;;
60819;SDS011;46641;48.904;9.126;2022-10-31T14:04:00;12.33;;;8.73;;
60819;SDS011;46641;48.904;9.126;2022-10-31T14:08:54;11.67;;;9.10;;
60819;SDS011;46641;48.904;9.126;2022-10-31T14:13:44;11.50;;;9.57;;
60819;SDS011;46641;48.904;9.126;2022-10-31T14:18:36;14.30;;;9.80;;
60819;SDS011;46641;48.904;9.126;2022-10-31T14:28:34;10.13;;;8.73;;
60819;SDS011;46641;48.904;9.126;2022-10-31T14:33:26;9.90;;;8.60;;
60819;SDS011;46641;48.904;9.126;2022-10-31T14:38:21;11.13;;;8.93;;
60819;SDS011;46641;48.904;9.126;2022-10-31T14:53:45;12.30;;;8.60;;
60819;SDS011;46641;48.904;9.126;2022-10-31T14:58:39;10.97;;;8.30;;
60819;SDS011;46641;48.904;9.126;2022-10-31T15:03:34;10.77;;;8.50;;
60819;SDS011;46641;48.904;9.126;2022-10-31T15:08:37;13.57;;;8.60;;
60819;SDS011;46641;48.904;9.126;2022-10-31T15:13:29;10.53;;;8.10;;
60819;SDS011;46641;48.904;9.126;2022-10-31T15:18:21;9.97;;;8.33;;
60819;SDS011;46641;48.904;9.126;2022-10-31T15:23:16;10.27;;;8.83;;
60819;SDS011;46641;48.904;9.126;2022-10-31T15:28:22;11.53;;;8.00;;
60819;SDS011;46641;48.904;9.126;2022-10-31T15:33:18;14.53;;;9.80;;
60819;SDS011;46641;48.904;9.126;2022-10-31T15:38:10;12.67;;;9.47;;
60819;SDS011;46641;48.904;9.126;2022-10-31T15:43:01;9.30;;;8.40;;
60819;SDS011;46641;48.904;9.126;2022-10-31T15:47:55;10.47;;;8.67;;
60819;SDS011;46641;48.904;9.126;2022-10-31T15:52:48;13.80;;;9.20;;
60819;SDS011;46641;48.904;9.126;2022-10-31T15:57:43;11.33;;;8.53;;
60819;SDS011;46641;48.904;9.126;2022-10-31T16:02:36;9.50;;;8.37;;
60819;SDS011;46641;48.904;9.126;2022-10-31T16:07:26;12.23;;;9.57;;
60819;SDS011;46641;48.904;9.126;2022-10-31T16:12:19;28.87;;;18.27;;
60819;SDS011;46641;48.904;9.126;2022-10-31T16:17:12;15.13;;;11.87;;
60819;SDS011;46641;48.904;9.126;2022-10-31T16:22:13;14.90;;;10.90;;
60819;SDS011;46641;48.904;9.126;2022-10-31T16:27:18;13.80;;;9.70;;
60819;SDS011;46641;48.904;9.126;2022-10-31T16:37:24;13.80;;;11.63;;
60819;SDS011;46641;48.904;9.126;2022-10-31T16:42:15;18.20;;;12.50;;
60819;SDS011;46641;48.904;9.126;2022-10-31T16:47:11;18.95;;;11.13;;
60819;SDS011;46641;48.904;9.126;2022-10-31T16:52:03;19.10;;;10.90;;
60819;SDS011;46641;48.904;9.126;2022-10-31T16:56:53;17.23;;;11.93;;
60819;SDS011;46641;48.904;9.126;2022-10-31T17:01:44;17.53;;;12.10;;
60819;SDS011;46641;48.904;9.126;2022-10-31T17:06:38;14.93;;;11.17;;
60819;SDS011;46641;48.904;9.126;2022-10-31T17:11:28;15.67;;;11.17;;
60819;SDS011;46641;48.904;9.126;2022-10-31T17:16:19;10.77;;;8.57;;
60819;SDS011;46641;48.904;9.126;2022-10-31T17:21:09;16.33;;;10.43;;
60819;SDS011;46641;48.904;9.126;2022-10-31T17:26:06;10.90;;;9.23;;
60819;SDS011;46641;48.904;9.126;2022-10-31T17:30:59;11.00;;;9.10;;
60819;SDS011;46641;48.904;9.126;2022-10-31T17:35:50;11.03;;;8.33;;
60819;SDS011;46641;48.904;9.126;2022-10-31T17:40:40;12.23;;;8.97;;
60819;SDS011;46641;48.904;9.126;2022-10-31T17:45:31;10.30;;;9.20;;
60819;SDS011;46641;48.904;9.126;2022-10-31T17:50:22;12.57;;;9.33;;
60819;SDS011;46641;48.904;9.126;2022-10-31T17:55:14;15.87;;;13.37;;
60819;SDS011;46641;48.904;9.126;2022-10-31T18:00:10;17.10;;;13.97;;
60819;SDS011;46641;48.904;9.126;2022-10-31T18:05:03;15.97;;;13.83;;
60819;SDS011;46641;48.904;9.126;2022-10-31T18:09:54;15.20;;;11.53;;
60819;SDS011;46641;48.904;9.126;2022-10-31T18:14:45;15.57;;;13.30;;
60819;SDS011;46641;48.904;9.126;2022-10-31T18:19:35;15.52;;;12.57;;
60819;SDS011;46641;48.904;9.126;2022-10-31T18:24:25;19.00;;;14.93;;
60819;SDS011;46641;48.904;9.126;2022-10-31T18:29:17;18.97;;;13.93;;
60819;SDS011;46641;48.904;9.126;2022-10-31T18:34:07;26.37;;;22.10;;
60819;SDS011;46641;48.904;9.126;2022-10-31T18:38:58;28.90;;;23.23;;
60819;SDS011;46641;48.904;9.126;2022-10-31T18:43:48;20.53;;;16.67;;
60819;SDS011;46641;48.904;9.126;2022-10-31T18:48:42;19.03;;;16.83;;
60819;SDS011;46641;48.904;9.126;2022-10-31T18:53:33;20.93;;;17.83;;
60819;SDS011;46641;48.904;9.126;2022-10-31T18:58:24;18.27;;;16.47;;
60819;SDS011;46641;48.904;9.126;2022-10-31T19:03:16;14.53;;;12.83;;
60819;SDS011;46641;48.904;9.126;2022-10-31T19:08:07;15.90;;;11.80;;
60819;SDS011;46641;48.904;9.126;2022-10-31T19:12:57;14.10;;;10.40;;
60819;SDS011;46641;48.904;9.126;2022-10-31T19:17:47;12.30;;;9.77;;
60819;SDS011;46641;48.904;9.126;2022-10-31T19:22:38;16.20;;;10.63;;
60819;SDS011;46641;48.904;9.126;2022-10-31T19:27:29;15.50;;;10.20;;
60819;SDS011;46641;48.904;9.126;2022-10-31T19:32:19;15.30;;;10.20;;
60819;SDS011;46641;48.904;9.126;2022-10-31T19:37:09;13.60;;;10.43;;
60819;SDS011;46641;48.904;9.126;2022-10-31T19:42:00;13.50;;;10.23;;
60819;SDS011;46641;48.904;9.126;2022-10-31T19:46:50;16.37;;;11.23;;
60819;SDS011;46641;48.904;9.126;2022-10-31T19:51:40;15.17;;;11.70;;
60819;SDS011;46641;48.904;9.126;2022-10-31T19:56:31;18.10;;;13.87;;
60819;SDS011;46641;48.904;9.126;2022-10-31T20:01:22;17.63;;;14.17;;
60819;SDS011;46641;48.904;9.126;2022-10-31T20:06:14;15.33;;;12.27;;
60819;SDS011;46641;48.904;9.126;2022-10-31T20:11:09;14.07;;;12.33;;
60819;SDS011;46641;48.904;9.126;2022-10-31T20:16:00;15.43;;;11.27;;
60819;SDS011;46641;48.904;9.126;2022-10-31T20:21:02;11.60;;;10.33;;
60819;SDS011;46641;48.904;9.126;2022-10-31T20:25:54;10.27;;;9.27;;
60819;SDS011;46641;48.904;9.126;2022-10-31T20:30:44;12.57;;;9.93;;
60819;SDS011;46641;48.904;9.126;2022-10-31T20:35:36;13.47;;;10.70;;
60819;SDS011;46641;48.904;9.126;2022-10-31T20:40:27;9.77;;;8.63;;
60819;SDS011;46641;48.904;9.126;2022-10-31T20:45:17;10.60;;;8.87;;
60819;SDS011;46641;48.904;9.126;2022-10-31T20:50:07;13.13;;;8.38;;
60819;SDS011;46641;48.904;9.126;2022-10-31T20:54:58;11.17;;;8.20;;
60819;SDS011;46641;48.904;9.126;2022-10-31T20:59:48;11.33;;;10.20;;
60819;SDS011;46641;48.904;9.126;2022-10-31T21:04:39;13.07;;;8.67;;
60819;SDS011;46641;48.904;9.126;2022-10-31T21:09:29;11.00;;;8.83;;
60819;SDS011;46641;48.904;9.126;2022-10-31T21:14:19;10.73;;;8.30;;
60819;SDS011;46641;48.904;9.126;2022-10-31T21:19:10;14.40;;;9.33;;
60819;SDS011;46641;48.904;9.126;2022-10-31T21:24:03;10.07;;;8.17;;
60819;SDS011;46641;48.904;9.126;2022-10-31T21:28:54;10.63;;;8.63;;
60819;SDS011;46641;48.904;9.126;2022-10-31T21:33:46;9.47;;;7.97;;
60819;SDS011;46641;48.904;9.126;2022-10-31T21:38:37;9.27;;;7.80;;
60819;SDS011;46641;48.904;9.126;2022-10-31T21:43:28;12.27;;;8.80;;
60819;SDS011;46641;48.904;9.126;2022-10-31T21:48:19;10.87;;;8.50;;
60819;SDS011;46641;48.904;9.126;2022-10-31T21:53:09;8.75;;;7.82;;
60819;SDS011;46641;48.904;9.126;2022-10-31T21:58:18;10.73;;;9.10;;
60819;SDS011;46641;48.904;9.126;2022-10-31T22:03:08;9.55;;;8.55;;
60819;SDS011;46641;48.904;9.126;2022-10-31T22:07:58;9.47;;;8.37;;
60819;SDS011;46641;48.904;9.126;2022-10-31T22:12:49;12.07;;;9.60;;
60819;SDS011;46641;48.904;9.126;2022-10-31T22:17:39;11.25;;;8.95;;
60819;SDS011;46641;48.904;9.126;2022-10-31T22:22:29;16.07;;;11.37;;
60819;SDS011;46641;48.904;9.126;2022-10-31T22:27:19;13.97;;;11.30;;
60819;SDS011;46641;48.904;9.126;2022-10-31T22:32:10;14.10;;;11.43;;
60819;SDS011;46641;48.904;9.126;2022-10-31T22:37:00;12.87;;;9.53;;
60819;SDS011;46641;48.904;9.126;2022-10-31T22:41:51;11.73;;;9.20;;
60819;SDS011;46641;48.904;9.126;2022-10-31T22:46:41;11.15;;;9.98;;
60819;SDS011;46641;48.904;9.126;2022-10-31T22:51:32;10.50;;;8.87;;
60819;SDS011;46641;48.904;9.126;2022-10-31T22:56:28;12.03;;;10.07;;
60819;SDS011;46641;48.904;9.126;2022-10-31T23:01:22;10.17;;;8.90;;
60819;SDS011;46641;48.904;9.126;2022-10-31T23:06:16;9.10;;;8.10;;
60819;SDS011;46641;48.904;9.126;2022-10-31T23:11:16;11.20;;;8.90;;
60819;SDS011;46641;48.904;9.126;2022-10-31T23:16:32;13.23;;;9.27;;
60819;SDS011;46641;48.904;9.126;2022-10-31T23:21:24;9.27;;;8.27;;
60819;SDS011;46641;48.904;9.126;2022-10-31T23:26:32;9.87;;;8.87;;
60819;SDS011;46641;48.904;9.126;2022-10-31T23:31:41;10.97;;;9.50;;
60819;SDS011;46641;48.904;9.126;2022-10-31T23:36:31;9.05;;;7.78;;
60819;SDS011;46641;48.904;9.126;2022-10-31T23:41:21;11.65;;;8.45;;
60819;SDS011;46641;48.904;9.126;2022-10-31T23:46:12;9.77;;;8.57;;
60819;SDS011;46641;48.904;9.126;2022-10-31T23:51:02;14.37;;;9.53;;
60819;SDS011;46641;48.904;9.126;2022-10-31T23:55:53;12.73;;;9.05;;
